To NAV CANADA Home Page Login to a new session Search on AWWS site Feedback and Comments Disclaimer Vers la page française équivalente Tips FAQ What's new on the site To the Forecasts and Observations / NOTAM section To "File a Flight Plan" website Publications and other links Update of the User's profile FIC Telephone Numbers My Weather Data Folder Route Weather Data Regional Weather Data Local Weather Data To the Forecasts and Observations / NOTAM section
Request Generated 08/01/2015 at 20:15:35 UTC . Weather information available at that time is displayed.

METAR/TAF

OTTAWA/MACDONALD-CARTIER INTL/ON    

METAR CYOW 012000Z 23008KT 15SM BKN060 BKN100 23/13 A2973 RMK CU6AC1
TCU ASOCTD SH ALQDS SLP069 DENSITY ALT 1600FT=
METAR CYOW 011900Z 20012G18KT 15SM BKN050 BKN240 25/14 A2973 RMK
CU5CI1 SLP067 DENSITY ALT 1800FT=
METAR CYOW 011800Z 30009G15KT 220V340 15SM SCT050 BKN240 26/13 A2973
RMK CU4CI1 TCU ASOCTD SH W SLP068 DENSITY ALT 1900FT=

TAF CYOW 011738Z 0118/0218 30010G20KT P6SM SCT040 TEMPO 0118/0124
P6SM -SHRA BKN040 PROB30 0118/0124 VRB15G25KT 3SM TSRA BR BKN020
OVC040CB
FM020000 24006KT P6SM SCT040
FM021500 23010KT P6SM BKN040 PROB30 0217/0218 2SM TSRA BR
BKN030CB
RMK NXT FCST BY 012100Z=
Your time UTC time
Weather data provided by Environment Canada and NAV CANADA